Robbinsdale, Minnesota
Current Conditions -  °F | °C
As of 10:53 AM on Friday 24 Oct 2014 (Local Time) from KMIC Reporting Station
Clear Clear  
Wind Chill: 58°   Ceiling: Unl
Heat Index: 58°   Visibility: 10mi
Dew Point: 49°   Wind: 13mph
Humidity: 72%   Direction: 150°SSE
Pressure: 29.86"   Gusts: NA
Location:  45.0089°N, 93.3395°W
Report Text: KMIC 241553Z 15011KT 10SM CLR 14/09 A2986 RMK AO2 SLP112 T01440094
Loading
Personal Weather Stations






























Interactive Weather Map
Tropical Storm Tracking
New forecast layout! Learn more

10-Day Weather Forecast

Advertisements
Track Severe Weather on mobile